NZOH/OHA METAR and TAF weather

Enter ICAO airport designator
Station Type Date Time Source
NZOH METAR 2021/09/12 23:00 UTC NOAA

NZOH 122300Z 31019G29KT 20KM SCT025 BKN035 OVC045 16/09 Q1011 TEMPO FM0000 4000 RA BKN015


Station Type Date Time Source
NZOH Decoded METAR 2021/09/12 23:00 UTC NOAA

Ohakea, New Zealand (NZOH) 40-12S 175-22E 52M
Sep 12, 2021 - 07:00 PM EDT / 2021.09.12 2300 UTC
Wind: from the NW (310 degrees) at 22 MPH (19 KT) gusting to 33 MPH (29 KT):0
Sky conditions: overcast
Temperature: 60 F (16 C)
Dew Point: 48 F (9 C)
Relative Humidity: 63%
Pressure (altimeter): 29.85 in. Hg (1011 hPa)
ob: NZOH 122300Z 31019G29KT 20KM SCT025 BKN035 OVC045 16/09 Q1011 TEMPO FM0000 4000 RA BKN015
cycle: 23

Station Type Date Time Source
NZOH TAF 2007/12/14 04:59 UTC NOAA

TAF NZOH 140459Z 140606 11020KT 30KM SCT080 BECMH 0911 03008KT
BECMG 2224 27012KT

Example: see airport list